createdAt,value
2018-03-16T00:01:10.120Z,14.93
2018-03-16T00:03:42.455Z,14.63
2018-03-16T00:06:16.032Z,14.83
2018-03-16T00:08:48.995Z,15.00
2018-03-16T00:11:22.341Z,14.63
2018-03-16T00:13:55.016Z,15.13
2018-03-16T00:16:27.095Z,14.70
2018-03-16T00:18:58.767Z,14.50
2018-03-16T00:21:31.504Z,14.80
2018-03-16T00:24:03.709Z,14.80
2018-03-16T00:26:36.834Z,14.37
2018-03-16T00:29:09.352Z,15.07
2018-03-16T00:31:42.471Z,15.87
2018-03-16T00:34:14.659Z,15.23
2018-03-16T00:36:46.114Z,14.70
2018-03-16T00:39:17.616Z,15.40
2018-03-16T00:41:49.004Z,14.83
2018-03-16T00:44:20.398Z,15.00
2018-03-16T00:46:51.798Z,15.00
2018-03-16T00:49:23.419Z,14.93
2018-03-16T00:51:54.840Z,15.13
2018-03-16T00:54:26.310Z,15.47
2018-03-16T00:56:57.977Z,15.73
2018-03-16T00:59:30.102Z,15.67
2018-03-16T01:02:02.319Z,15.23
2018-03-16T01:04:34.126Z,16.53
2018-03-16T01:07:05.776Z,16.23
2018-03-16T01:09:36.647Z,16.43
2018-03-16T01:12:07.712Z,16.67
2018-03-16T01:14:38.499Z,15.77
2018-03-16T01:17:11.397Z,16.07
2018-03-16T01:19:43.053Z,16.17
2018-03-16T01:22:15.198Z,16.57
2018-03-16T01:24:48.121Z,16.33
2018-03-16T01:27:18.972Z,16.70
2018-03-16T01:29:49.852Z,17.43
2018-03-16T01:32:20.703Z,16.27
2018-03-16T01:34:52.422Z,16.63
2018-03-16T01:37:23.988Z,17.20
2018-03-16T01:39:55.648Z,17.87
2018-03-16T01:42:28.263Z,16.87
2018-03-16T01:45:00.249Z,17.63
2018-03-16T01:47:31.634Z,16.67
2018-03-16T01:50:03.967Z,17.27
2018-03-16T01:52:35.927Z,16.53
2018-03-16T01:55:08.374Z,17.23
2018-03-16T01:57:39.855Z,17.13
2018-03-16T02:00:11.267Z,16.67
2018-03-16T02:02:43.527Z,15.70
2018-03-16T02:05:15.036Z,16.80
2018-03-16T02:07:46.768Z,15.90
2018-03-16T02:10:17.711Z,16.97
2018-03-16T02:12:49.380Z,17.43
2018-03-16T02:15:21.418Z,18.43
2018-03-16T02:17:53.703Z,18.07
2018-03-16T02:20:25.746Z,17.27
2018-03-16T02:22:57.680Z,19.23
2018-03-16T02:25:29.228Z,17.23
2018-03-16T02:28:00.821Z,18.30
2018-03-16T02:30:33.648Z,17.80
2018-03-16T02:33:06.071Z,16.73
2018-03-16T02:35:39.079Z,16.90
2018-03-16T02:38:10.884Z,17.23
2018-03-16T02:40:42.484Z,16.57
2018-03-16T02:43:13.102Z,17.40
2018-03-16T02:45:43.701Z,17.37
2018-03-16T02:48:14.310Z,16.87
2018-03-16T02:50:45.647Z,17.47
2018-03-16T02:53:17.346Z,17.27
2018-03-16T02:55:48.995Z,16.53
2018-03-16T02:58:20.546Z,17.40
2018-03-16T03:00:54.447Z,16.47
2018-03-16T03:03:25.886Z,17.17
2018-03-16T03:05:58.271Z,16.83
2018-03-16T03:08:30.351Z,16.70
2018-03-16T03:11:03.172Z,16.90
2018-03-16T03:13:34.904Z,16.67
2018-03-16T03:16:07.810Z,17.17
2018-03-16T03:18:39.670Z,17.10
2018-03-16T03:21:11.710Z,17.57
2018-03-16T03:23:43.195Z,17.33
2018-03-16T03:26:15.063Z,16.63
2018-03-16T03:28:46.551Z,16.90
2018-03-16T03:31:19.599Z,16.73
2018-03-16T03:33:51.117Z,15.93
2018-03-16T03:36:22.593Z,16.90
2018-03-16T03:38:54.543Z,16.30
2018-03-16T03:41:27.445Z,15.73
2018-03-16T03:44:00.603Z,17.50
2018-03-16T03:46:33.082Z,16.67
2018-03-16T03:49:05.198Z,15.67
2018-03-16T03:51:37.439Z,16.70
2018-03-16T03:54:09.538Z,15.73
2018-03-16T03:56:43.098Z,16.00
2018-03-16T03:59:15.298Z,15.67
2018-03-16T04:01:47.489Z,15.60
2018-03-16T04:04:20.158Z,16.70
2018-03-16T04:06:52.862Z,15.87
2018-03-16T04:09:26.531Z,15.73
2018-03-16T04:11:59.092Z,16.23
2018-03-16T04:14:32.374Z,15.80
2018-03-16T04:17:04.816Z,15.53
2018-03-16T04:19:38.826Z,15.30
2018-03-16T04:22:12.378Z,14.63
2018-03-16T04:24:44.498Z,14.90
2018-03-16T04:27:16.979Z,14.13
2018-03-16T04:29:49.906Z,14.87
2018-03-16T04:32:21.427Z,14.00
2018-03-16T04:34:53.839Z,14.73
2018-03-16T04:37:28.409Z,13.60
2018-03-16T04:40:00.535Z,13.43
2018-03-16T04:42:33.542Z,13.10
2018-03-16T04:45:06.014Z,13.70
2018-03-16T04:47:37.646Z,13.30
2018-03-16T04:50:10.358Z,13.67
2018-03-16T04:52:41.874Z,13.93
2018-03-16T04:55:14.054Z,13.53
2018-03-16T04:57:46.274Z,13.17
2018-03-16T05:00:18.361Z,13.07
2018-03-16T05:02:50.019Z,12.97
2018-03-16T05:05:21.774Z,13.07
2018-03-16T05:07:53.586Z,12.77
2018-03-16T05:10:25.155Z,12.47
2018-03-16T05:12:56.683Z,12.57
2018-03-16T05:15:29.143Z,12.23
2018-03-16T05:18:00.894Z,11.47
2018-03-16T05:20:33.982Z,11.20
2018-03-16T05:23:06.803Z,11.43
2018-03-16T05:25:38.887Z,11.73
2018-03-16T05:28:11.143Z,12.10
2018-03-16T05:30:43.874Z,11.70
2018-03-16T05:33:17.007Z,11.03
2018-03-16T05:35:50.663Z,11.13
2018-03-16T05:38:23.164Z,10.83
2018-03-16T05:40:56.022Z,10.73
2018-03-16T05:43:28.414Z,10.10
2018-03-16T05:46:01.412Z,10.17
2018-03-16T05:48:33.630Z,9.97
2018-03-16T05:51:04.838Z,10.53
2018-03-16T05:53:36.326Z,9.63
2018-03-16T05:56:07.792Z,9.90
2018-03-16T05:58:38.954Z,10.00
2018-03-16T06:01:10.183Z,9.97
2018-03-16T06:03:43.026Z,8.70
2018-03-16T06:06:15.127Z,9.90
2018-03-16T06:08:47.912Z,12.50
2018-03-16T06:11:20.711Z,8.63
2018-03-16T06:13:53.748Z,8.50
2018-03-16T06:16:25.928Z,8.30
2018-03-16T06:18:58.050Z,8.80
2018-03-16T06:21:30.504Z,8.50
2018-03-16T06:24:01.834Z,8.83
2018-03-16T06:26:33.029Z,8.27
2018-03-16T06:29:04.612Z,8.97
2018-03-16T06:31:35.935Z,8.17
2018-03-16T06:34:07.176Z,7.30
2018-03-16T06:36:38.894Z,8.97
2018-03-16T06:39:11.120Z,8.07
2018-03-16T06:41:42.741Z,7.77
2018-03-16T06:44:13.884Z,7.67
2018-03-16T06:46:46.133Z,7.80
2018-03-16T06:49:19.443Z,7.20
2018-03-16T06:51:51.559Z,7.57
2018-03-16T06:54:23.715Z,7.37
2018-03-16T06:56:55.120Z,7.90
2018-03-16T06:59:26.683Z,7.60
2018-03-16T07:01:58.462Z,7.60
2018-03-16T07:04:31.844Z,7.73
2018-03-16T07:07:03.349Z,7.43
2018-03-16T07:09:34.884Z,7.53
2018-03-16T07:12:06.303Z,7.40
2018-03-16T07:14:38.199Z,7.87
2018-03-16T07:17:09.823Z,7.47
2018-03-16T07:19:41.619Z,8.30
2018-03-16T07:22:13.328Z,7.70
2018-03-16T08:08:27.563Z,7.23
2018-03-16T08:10:58.996Z,7.37
2018-03-16T08:13:31.339Z,7.87
2018-03-16T08:16:03.518Z,6.57
2018-03-16T08:18:35.555Z,6.63
2018-03-16T08:21:06.941Z,6.60
2018-03-16T08:23:38.215Z,6.93
2018-03-16T08:26:09.769Z,6.20
2018-03-16T08:28:40.940Z,6.10
2018-03-16T08:31:13.125Z,6.17
2018-03-16T08:33:44.328Z,6.57
2018-03-16T08:36:15.464Z,6.77
2018-03-16T08:38:46.875Z,6.00
2018-03-16T08:41:18.506Z,6.30
2018-03-16T08:43:50.043Z,5.70
2018-03-16T08:46:21.395Z,6.23
2018-03-16T08:48:52.597Z,5.90
2018-03-16T08:51:23.804Z,6.57
2018-03-16T08:53:56.014Z,6.20
2018-03-16T08:56:27.592Z,6.07
2018-03-16T08:58:58.872Z,5.87
2018-03-16T09:01:31.325Z,5.93
2018-03-16T09:04:03.440Z,5.73
2018-03-16T09:06:35.488Z,6.30
2018-03-16T09:09:07.274Z,6.10
2018-03-16T09:11:38.409Z,6.57
2018-03-16T09:14:09.689Z,6.23
2018-03-16T09:16:41.129Z,6.30
2018-03-16T09:19:11.709Z,5.93
2018-03-16T09:21:42.371Z,5.90
2018-03-16T09:24:13.254Z,6.20
2018-03-16T09:26:43.966Z,5.80
2018-03-16T09:29:15.808Z,6.37
2018-03-16T09:31:48.098Z,5.57
2018-03-16T09:34:20.920Z,5.53
2018-03-16T09:36:53.102Z,5.50
2018-03-16T09:39:25.521Z,5.83
2018-03-16T09:41:57.660Z,5.77
2018-03-16T09:44:30.268Z,5.60
2018-03-16T09:47:02.626Z,6.20
2018-03-16T09:49:33.831Z,6.13
2018-03-16T09:52:05.002Z,5.77
2018-03-16T09:54:44.680Z,5.80
2018-03-16T09:57:16.783Z,6.60
2018-03-16T09:59:48.307Z,6.40
2018-03-16T10:02:20.583Z,5.50
2018-03-16T10:04:52.790Z,5.73
2018-03-16T10:07:24.455Z,5.60
2018-03-16T10:09:56.840Z,5.60
2018-03-16T10:12:29.493Z,6.10
2018-03-16T10:15:01.250Z,5.30
2018-03-16T10:17:32.683Z,5.43
2018-03-16T10:20:04.579Z,5.63
2018-03-16T10:22:36.129Z,5.43
2018-03-16T10:25:08.672Z,5.70
2018-03-16T10:27:41.222Z,5.50
2018-03-16T10:30:13.639Z,5.90
2018-03-16T10:32:45.281Z,5.67
2018-03-16T10:35:16.216Z,6.20
2018-03-16T10:37:47.542Z,5.47
2018-03-16T10:40:18.107Z,5.60
2018-03-16T10:42:48.745Z,5.93
2018-03-16T10:45:19.322Z,5.90
2018-03-16T10:48:52.329Z,5.83
2018-03-16T10:51:23.826Z,5.53
2018-03-16T10:53:55.591Z,5.80
2018-03-16T10:56:27.456Z,5.47
2018-03-16T10:58:58.708Z,5.90
2018-03-16T11:01:33.917Z,5.33
2018-03-16T11:04:09.127Z,5.80
2018-03-16T11:06:43.820Z,5.30
2018-03-16T11:09:14.985Z,5.33
2018-03-16T11:11:46.933Z,5.30
2018-03-16T11:14:18.202Z,5.20
2018-03-16T11:16:49.452Z,5.50
2018-03-16T11:19:20.775Z,5.40
2018-03-16T11:21:51.522Z,5.73
2018-03-16T11:24:22.383Z,5.70
2018-03-16T11:26:53.838Z,5.37
2018-03-16T11:29:24.353Z,5.63
2018-03-16T11:31:54.897Z,4.67
2018-03-16T11:34:27.633Z,4.70
2018-03-16T11:36:59.065Z,4.80
2018-03-16T11:39:31.243Z,4.23
2018-03-16T11:42:03.784Z,4.90
2018-03-16T11:44:34.731Z,4.10
2018-03-16T11:47:06.097Z,3.67
2018-03-16T11:49:38.407Z,3.70
2018-03-16T11:52:10.951Z,3.83
2018-03-16T11:54:44.152Z,3.40
2018-03-16T11:57:15.365Z,3.73
2018-03-16T11:59:46.768Z,3.30
2018-03-16T12:02:17.946Z,3.50
2018-03-16T12:04:49.172Z,3.20
2018-03-16T12:07:20.473Z,2.97
2018-03-16T12:09:51.613Z,3.20
2018-03-16T12:12:23.786Z,3.80
2018-03-16T12:14:54.977Z,3.60
2018-03-16T12:17:26.137Z,3.17
2018-03-16T12:19:57.442Z,3.33
2018-03-16T12:22:29.594Z,3.13
2018-03-16T12:25:01.504Z,3.60
2018-03-16T12:27:33.180Z,3.43
2018-03-16T12:30:05.029Z,3.70
2018-03-16T12:32:37.920Z,3.50
2018-03-16T12:35:10.050Z,3.10
2018-03-16T12:37:42.906Z,3.40
2018-03-16T12:40:16.644Z,3.30
2018-03-16T12:42:49.088Z,3.20
2018-03-16T12:45:22.359Z,3.30
2018-03-16T12:47:53.636Z,2.97
2018-03-16T12:50:24.826Z,3.63
2018-03-16T12:52:56.046Z,3.00
2018-03-16T12:55:27.484Z,2.83
2018-03-16T12:57:59.737Z,3.20
2018-03-16T13:00:31.700Z,3.90
2018-03-16T13:03:03.957Z,3.20
2018-03-16T13:05:36.063Z,3.27
2018-03-16T13:08:07.408Z,3.40
2018-03-16T13:10:39.701Z,2.90
2018-03-16T13:13:12.798Z,3.03
2018-03-16T13:15:45.131Z,2.80
2018-03-16T13:18:17.664Z,3.37
2018-03-16T13:20:49.904Z,3.30
2018-03-16T13:23:22.516Z,3.17
2018-03-16T13:25:55.520Z,3.20
2018-03-16T13:28:27.267Z,2.60
2018-03-16T13:30:59.230Z,2.90
2018-03-16T13:33:31.504Z,3.00
2018-03-16T13:36:04.496Z,2.77
2018-03-16T13:38:36.567Z,3.10
2018-03-16T13:41:07.856Z,2.70
2018-03-16T13:43:40.086Z,2.87
2018-03-16T13:46:11.377Z,2.87
2018-03-16T13:48:43.672Z,3.00
2018-03-16T13:51:14.481Z,2.80
2018-03-16T13:53:45.157Z,2.90
2018-03-16T13:56:15.728Z,3.17
2018-03-16T13:58:47.355Z,2.83
2018-03-16T14:01:18.938Z,3.10
2018-03-16T14:03:49.797Z,3.00
2018-03-16T14:06:21.125Z,3.40
2018-03-16T14:08:52.369Z,3.00
2018-03-16T14:11:23.525Z,2.90
2018-03-16T14:13:54.974Z,2.67
2018-03-16T14:16:26.443Z,3.10
2018-03-16T14:18:58.287Z,2.80
2018-03-16T14:21:29.946Z,2.90
2018-03-16T14:24:01.194Z,3.40
2018-03-16T14:26:33.916Z,3.10
2018-03-16T14:29:06.937Z,2.93
2018-03-16T14:31:39.185Z,3.20
2018-03-16T14:34:10.872Z,3.17
2018-03-16T14:36:43.237Z,3.07
2018-03-16T14:39:14.479Z,3.43
2018-03-16T14:41:45.724Z,3.30
2018-03-16T14:44:17.725Z,3.13
2018-03-16T14:46:48.881Z,3.20
2018-03-16T14:49:20.481Z,3.07
2018-03-16T14:51:51.830Z,3.10
2018-03-16T14:54:24.046Z,3.40
2018-03-16T14:56:57.068Z,3.43
2018-03-16T14:59:28.464Z,3.00
2018-03-16T15:02:00.379Z,3.33
2018-03-16T15:04:31.874Z,3.03
2018-03-16T15:07:02.618Z,2.87
2018-03-16T15:09:33.239Z,3.47
2018-03-16T15:12:03.898Z,3.13
2018-03-16T15:14:34.483Z,3.80
2018-03-16T15:17:05.650Z,3.10
2018-03-16T15:19:37.376Z,3.20
2018-03-16T15:22:09.202Z,6.07
2018-03-16T15:24:40.116Z,2.90
2018-03-16T15:27:11.444Z,3.20
2018-03-16T15:29:42.144Z,3.00
2018-03-16T15:32:14.768Z,3.10
2018-03-16T15:34:45.328Z,3.03
2018-03-16T15:37:16.103Z,3.10
2018-03-16T15:39:48.045Z,2.83
2018-03-16T15:42:20.100Z,2.63
2018-03-16T15:44:51.319Z,3.03
2018-03-16T15:47:22.896Z,2.60
2018-03-16T15:49:54.092Z,3.17
2018-03-16T15:52:25.239Z,2.60
2018-03-16T15:54:56.453Z,2.73
2018-03-16T15:57:27.706Z,3.10
2018-03-16T16:00:01.585Z,2.60
2018-03-16T16:02:33.840Z,2.90
2018-03-16T16:05:06.798Z,2.70
2018-03-16T16:07:39.942Z,2.67
2018-03-16T16:10:12.132Z,2.33
2018-03-16T16:12:44.382Z,2.60
2018-03-16T16:15:15.601Z,2.63
2018-03-16T16:17:47.212Z,2.73
2018-03-16T16:20:18.755Z,2.87
2018-03-16T16:22:50.410Z,3.73
2018-03-16T16:25:22.272Z,3.10
2018-03-16T16:27:53.907Z,2.70
2018-03-16T16:30:25.691Z,2.60
2018-03-16T16:34:11.550Z,2.70
2018-03-16T16:36:43.252Z,2.77
2018-03-16T16:39:14.984Z,2.90
2018-03-16T16:41:46.748Z,2.43
2018-03-16T16:44:18.588Z,2.97
2018-03-16T16:46:50.108Z,2.40
2018-03-16T16:49:22.218Z,2.90
2018-03-16T16:51:55.331Z,2.57
2018-03-16T16:54:26.781Z,2.17
2018-03-16T16:56:57.812Z,2.60
2018-03-16T17:03:04.345Z,2.70
2018-03-16T17:05:36.697Z,2.60
2018-03-16T17:08:08.156Z,2.80
2018-03-16T17:10:39.032Z,3.00
2018-03-16T17:13:10.137Z,2.57
2018-03-16T17:15:40.785Z,2.43
2018-03-16T17:18:11.244Z,2.80
2018-03-16T17:20:41.631Z,2.57
2018-03-16T17:23:12.023Z,2.60
2018-03-16T17:25:42.361Z,2.93
2018-03-16T17:28:12.749Z,2.83
2018-03-16T17:30:43.044Z,2.83
2018-03-16T17:33:13.656Z,2.50
2018-03-16T17:35:44.008Z,2.77
2018-03-16T17:38:14.359Z,2.67
2018-03-16T17:40:44.749Z,2.50
2018-03-16T17:43:15.015Z,3.00
2018-03-16T17:45:45.716Z,2.60
2018-03-16T17:48:16.647Z,3.20
2018-03-16T17:50:47.858Z,2.83
2018-03-16T17:53:18.684Z,2.87
2018-03-16T17:55:48.983Z,3.80
2018-03-16T17:58:19.374Z,2.50
2018-03-16T18:00:51.448Z,3.70
2018-03-16T18:03:22.632Z,2.80
2018-03-16T18:05:53.232Z,3.80
2018-03-16T18:08:23.901Z,2.70
2018-03-16T18:10:54.401Z,3.27
2018-03-16T18:13:24.699Z,3.17
2018-03-16T18:15:56.026Z,3.40
2018-03-16T18:18:26.535Z,3.80
2018-03-16T18:20:57.107Z,3.10
2018-03-16T18:23:28.680Z,2.70
2018-03-16T18:25:59.207Z,2.80
2018-03-16T18:28:29.546Z,3.42
2018-03-16T18:30:59.802Z,2.77
2018-03-16T18:33:30.120Z,2.70
2018-03-16T18:36:00.469Z,2.70
2018-03-16T18:38:31.007Z,2.90
2018-03-16T18:41:02.109Z,2.73
2018-03-16T18:43:32.383Z,3.30
2018-03-16T18:46:03.547Z,2.70
2018-03-16T18:48:33.851Z,2.60
2018-03-16T18:51:04.143Z,2.80
2018-03-16T18:53:34.717Z,2.53
2018-03-16T18:56:05.492Z,2.70
2018-03-16T18:58:35.960Z,3.00
2018-03-16T19:01:06.760Z,3.00
2018-03-16T19:03:38.234Z,2.77
2018-03-16T19:06:09.623Z,2.30
2018-03-16T19:08:40.004Z,3.00
2018-03-16T19:11:10.548Z,2.67
2018-03-16T19:13:41.629Z,2.93
2018-03-16T19:16:12.023Z,3.23
2018-03-16T19:18:42.601Z,2.90
2018-03-16T19:21:13.504Z,2.87
2018-03-16T19:23:43.924Z,2.63
2018-03-16T19:26:14.504Z,3.03
2018-03-16T19:28:45.069Z,3.20
2018-03-16T19:31:15.525Z,3.43
2018-03-16T19:33:46.303Z,3.20
2018-03-16T19:36:17.498Z,3.10
2018-03-16T19:38:48.210Z,2.60
2018-03-16T19:41:19.154Z,3.57
2018-03-16T19:43:49.564Z,3.70
2018-03-16T19:46:22.100Z,3.70
2018-03-16T19:48:52.784Z,3.17
2018-03-16T19:51:23.960Z,3.13
2018-03-16T19:53:54.581Z,3.00
2018-03-16T19:56:25.173Z,2.80
2018-03-16T19:58:55.656Z,2.80
2018-03-16T20:01:26.075Z,4.13
2018-03-16T20:03:56.769Z,3.27
2018-03-16T20:06:27.540Z,3.70
2018-03-16T20:08:58.138Z,4.07
2018-03-16T20:11:29.359Z,3.70
2018-03-16T20:14:00.439Z,3.10
2018-03-16T20:16:30.706Z,3.43
2018-03-16T20:19:01.391Z,3.27
2018-03-16T20:21:31.904Z,3.13
2018-03-16T20:24:02.358Z,3.20
2018-03-16T20:26:32.760Z,3.10
2018-03-16T20:29:03.103Z,3.53
2018-03-16T20:31:33.847Z,3.37
2018-03-16T20:34:04.222Z,3.50
2018-03-16T20:36:35.851Z,2.93
2018-03-16T20:39:07.897Z,3.30
2018-03-16T20:41:38.403Z,3.30
2018-03-16T20:44:08.660Z,3.00
2018-03-16T20:46:38.972Z,3.20
2018-03-16T20:49:09.787Z,3.43
2018-03-16T20:51:40.374Z,2.80
2018-03-16T20:54:11.438Z,3.12
2018-03-16T20:56:42.271Z,3.40
2018-03-16T20:59:12.831Z,3.90
2018-03-16T21:01:43.716Z,3.50
2018-03-16T21:04:15.088Z,4.65
2018-03-16T21:06:45.816Z,3.40
2018-03-16T21:09:16.091Z,3.70
2018-03-16T21:11:46.618Z,3.50
2018-03-16T21:14:16.873Z,3.20
2018-03-16T21:16:47.939Z,3.80
2018-03-16T21:19:18.216Z,3.35
2018-03-16T21:21:48.589Z,3.30
2018-03-16T21:24:18.963Z,3.13
2018-03-16T21:26:49.529Z,3.50
2018-03-16T21:29:20.089Z,3.57
2018-03-16T21:31:50.363Z,3.30
2018-03-16T21:34:21.433Z,3.30
2018-03-16T21:36:51.962Z,3.67
2018-03-16T21:39:22.343Z,3.27
2018-03-16T21:41:52.791Z,3.23
2018-03-16T21:44:23.572Z,3.28
2018-03-16T21:46:55.222Z,3.17
2018-03-16T21:49:25.816Z,3.90
2018-03-16T21:51:56.610Z,3.27
2018-03-16T21:54:27.036Z,3.70
2018-03-16T21:56:58.182Z,3.07
2018-03-16T21:59:28.766Z,3.70
2018-03-16T22:01:59.093Z,3.60
2018-03-16T22:04:29.495Z,3.22
2018-03-16T22:07:01.563Z,3.20
2018-03-16T22:09:32.738Z,3.43
2018-03-16T22:12:03.013Z,3.30
2018-03-16T22:14:34.379Z,3.30
2018-03-16T22:17:06.012Z,3.50
2018-03-16T22:19:37.044Z,3.63
2018-03-16T22:22:08.665Z,4.00
2018-03-16T22:24:39.196Z,3.10
2018-03-16T22:27:09.513Z,2.93
2018-03-16T22:29:39.786Z,3.53
2018-03-16T22:32:10.153Z,3.30
2018-03-16T22:34:40.543Z,3.50
2018-03-16T22:37:11.576Z,3.65
2018-03-16T22:39:42.974Z,3.25
2018-03-16T22:42:13.302Z,3.15
2018-03-16T22:44:43.756Z,3.10
2018-03-16T22:47:14.306Z,3.10
2018-03-16T22:49:45.840Z,3.65
2018-03-16T22:52:16.926Z,3.23
2018-03-16T22:54:47.258Z,3.62
2018-03-16T22:57:18.025Z,3.90
2018-03-16T22:59:48.567Z,3.50
2018-03-16T23:02:19.572Z,4.10
2018-03-16T23:04:49.896Z,3.97
2018-03-16T23:07:21.379Z,3.95
2018-03-16T23:09:52.183Z,4.82
2018-03-16T23:12:22.439Z,3.80
2018-03-16T23:14:53.504Z,4.27
2018-03-16T23:17:24.063Z,4.32
2018-03-16T23:19:54.314Z,3.70
2018-03-16T23:22:24.567Z,4.03
2018-03-16T23:24:56.075Z,3.77
2018-03-16T23:27:26.343Z,4.05
2018-03-16T23:29:57.402Z,3.45
2018-03-16T23:32:27.986Z,3.20
2018-03-16T23:34:58.678Z,3.22
2018-03-16T23:37:29.862Z,3.45
2018-03-16T23:40:00.440Z,3.30
2018-03-16T23:42:30.727Z,3.50
2018-03-16T23:45:02.052Z,3.67
2018-03-16T23:47:33.342Z,3.53
2018-03-16T23:50:04.425Z,3.17
2018-03-16T23:52:35.770Z,3.10
2018-03-16T23:55:06.367Z,3.30
2018-03-16T23:57:36.650Z,3.00
